sensor_id;sensor_type;location;lat;lon;timestamp;P1;durP1;ratioP1;P2;durP2;ratioP2
11807;SDS011;5961;42.640;23.380;2024-03-22T00:01:53;12.60;;;6.77;;
11807;SDS011;5961;42.640;23.380;2024-03-22T00:04:20;13.60;;;7.43;;
11807;SDS011;5961;42.640;23.380;2024-03-22T00:06:46;15.57;;;7.23;;
11807;SDS011;5961;42.640;23.380;2024-03-22T00:09:15;14.13;;;6.47;;
11807;SDS011;5961;42.640;23.380;2024-03-22T00:11:41;14.20;;;6.83;;
11807;SDS011;5961;42.640;23.380;2024-03-22T00:14:09;15.07;;;7.17;;
11807;SDS011;5961;42.640;23.380;2024-03-22T00:16:37;18.03;;;6.93;;
11807;SDS011;5961;42.640;23.380;2024-03-22T00:19:04;14.23;;;7.83;;
11807;SDS011;5961;42.640;23.380;2024-03-22T00:21:30;16.30;;;7.20;;
11807;SDS011;5961;42.640;23.380;2024-03-22T00:23:56;15.20;;;6.40;;
11807;SDS011;5961;42.640;23.380;2024-03-22T00:26:22;15.50;;;7.47;;
11807;SDS011;5961;42.640;23.380;2024-03-22T00:28:49;14.83;;;6.80;;
11807;SDS011;5961;42.640;23.380;2024-03-22T00:31:18;13.00;;;6.97;;
11807;SDS011;5961;42.640;23.380;2024-03-22T00:33:46;13.27;;;7.23;;
11807;SDS011;5961;42.640;23.380;2024-03-22T00:36:12;17.37;;;7.20;;
11807;SDS011;5961;42.640;23.380;2024-03-22T00:38:38;14.07;;;6.57;;
11807;SDS011;5961;42.640;23.380;2024-03-22T00:41:04;11.73;;;6.30;;
11807;SDS011;5961;42.640;23.380;2024-03-22T00:43:31;12.33;;;6.53;;
11807;SDS011;5961;42.640;23.380;2024-03-22T00:45:57;12.43;;;6.80;;
11807;SDS011;5961;42.640;23.380;2024-03-22T00:48:25;16.27;;;7.63;;
11807;SDS011;5961;42.640;23.380;2024-03-22T00:50:52;20.10;;;8.63;;
11807;SDS011;5961;42.640;23.380;2024-03-22T00:53:19;18.90;;;9.47;;
11807;SDS011;5961;42.640;23.380;2024-03-22T00:55:44;19.27;;;9.30;;
11807;SDS011;5961;42.640;23.380;2024-03-22T00:58:16;19.57;;;9.60;;
11807;SDS011;5961;42.640;23.380;2024-03-22T01:00:41;21.50;;;10.40;;
11807;SDS011;5961;42.640;23.380;2024-03-22T01:03:08;23.17;;;11.37;;
11807;SDS011;5961;42.640;23.380;2024-03-22T01:05:34;27.73;;;11.37;;
11807;SDS011;5961;42.640;23.380;2024-03-22T01:08:03;22.53;;;10.90;;
11807;SDS011;5961;42.640;23.380;2024-03-22T01:10:30;23.10;;;10.57;;
11807;SDS011;5961;42.640;23.380;2024-03-22T01:12:57;23.97;;;10.70;;
11807;SDS011;5961;42.640;23.380;2024-03-22T01:15:22;35.87;;;13.03;;
11807;SDS011;5961;42.640;23.380;2024-03-22T01:17:49;26.47;;;12.00;;
11807;SDS011;5961;42.640;23.380;2024-03-22T01:20:15;24.87;;;10.53;;
11807;SDS011;5961;42.640;23.380;2024-03-22T01:22:41;21.70;;;9.67;;
11807;SDS011;5961;42.640;23.380;2024-03-22T01:25:09;23.37;;;9.67;;
11807;SDS011;5961;42.640;23.380;2024-03-22T01:27:35;17.03;;;8.53;;
11807;SDS011;5961;42.640;23.380;2024-03-22T01:30:01;16.03;;;8.13;;
11807;SDS011;5961;42.640;23.380;2024-03-22T01:32:28;18.97;;;8.93;;
11807;SDS011;5961;42.640;23.380;2024-03-22T01:34:56;19.03;;;7.67;;
11807;SDS011;5961;42.640;23.380;2024-03-22T01:37:22;19.67;;;8.37;;
11807;SDS011;5961;42.640;23.380;2024-03-22T01:39:49;15.33;;;7.43;;
11807;SDS011;5961;42.640;23.380;2024-03-22T01:42:16;14.77;;;8.10;;
11807;SDS011;5961;42.640;23.380;2024-03-22T01:44:42;20.67;;;8.97;;
11807;SDS011;5961;42.640;23.380;2024-03-22T01:47:08;17.57;;;8.37;;
11807;SDS011;5961;42.640;23.380;2024-03-22T01:49:35;17.87;;;8.53;;
11807;SDS011;5961;42.640;23.380;2024-03-22T01:52:01;21.20;;;9.50;;
11807;SDS011;5961;42.640;23.380;2024-03-22T01:54:28;16.93;;;8.77;;
11807;SDS011;5961;42.640;23.380;2024-03-22T01:56:55;20.13;;;8.73;;
11807;SDS011;5961;42.640;23.380;2024-03-22T01:59:24;16.67;;;8.37;;
11807;SDS011;5961;42.640;23.380;2024-03-22T02:01:51;17.27;;;8.87;;
11807;SDS011;5961;42.640;23.380;2024-03-22T02:04:18;17.07;;;8.03;;
11807;SDS011;5961;42.640;23.380;2024-03-22T02:06:43;21.73;;;8.70;;
11807;SDS011;5961;42.640;23.380;2024-03-22T02:09:10;18.37;;;8.67;;
11807;SDS011;5961;42.640;23.380;2024-03-22T02:11:36;15.27;;;8.77;;
11807;SDS011;5961;42.640;23.380;2024-03-22T02:14:03;21.67;;;9.47;;
11807;SDS011;5961;42.640;23.380;2024-03-22T02:16:30;18.47;;;8.60;;
11807;SDS011;5961;42.640;23.380;2024-03-22T02:18:57;15.57;;;8.10;;
11807;SDS011;5961;42.640;23.380;2024-03-22T02:21:24;23.23;;;9.60;;
11807;SDS011;5961;42.640;23.380;2024-03-22T02:23:51;19.73;;;8.77;;
11807;SDS011;5961;42.640;23.380;2024-03-22T02:26:18;22.97;;;9.40;;
11807;SDS011;5961;42.640;23.380;2024-03-22T02:28:43;21.53;;;10.07;;
11807;SDS011;5961;42.640;23.380;2024-03-22T02:31:10;20.77;;;10.20;;
11807;SDS011;5961;42.640;23.380;2024-03-22T02:33:36;19.23;;;9.37;;
11807;SDS011;5961;42.640;23.380;2024-03-22T02:36:02;18.43;;;9.33;;
11807;SDS011;5961;42.640;23.380;2024-03-22T02:38:30;22.40;;;9.27;;
11807;SDS011;5961;42.640;23.380;2024-03-22T02:40:58;22.13;;;9.90;;
11807;SDS011;5961;42.640;23.380;2024-03-22T02:43:24;20.80;;;9.67;;
11807;SDS011;5961;42.640;23.380;2024-03-22T02:45:50;29.33;;;9.20;;
11807;SDS011;5961;42.640;23.380;2024-03-22T02:48:16;17.70;;;9.40;;
11807;SDS011;5961;42.640;23.380;2024-03-22T02:50:43;17.43;;;8.53;;
11807;SDS011;5961;42.640;23.380;2024-03-22T02:53:09;19.53;;;8.27;;
11807;SDS011;5961;42.640;23.380;2024-03-22T02:55:36;18.23;;;8.30;;
11807;SDS011;5961;42.640;23.380;2024-03-22T02:58:04;21.53;;;8.93;;
11807;SDS011;5961;42.640;23.380;2024-03-22T03:00:31;18.77;;;8.83;;
11807;SDS011;5961;42.640;23.380;2024-03-22T03:02:57;17.63;;;8.67;;
11807;SDS011;5961;42.640;23.380;2024-03-22T03:05:23;21.83;;;8.93;;
11807;SDS011;5961;42.640;23.380;2024-03-22T03:07:49;18.93;;;8.90;;
11807;SDS011;5961;42.640;23.380;2024-03-22T03:10:16;19.60;;;8.63;;
11807;SDS011;5961;42.640;23.380;2024-03-22T03:12:42;21.27;;;8.77;;
11807;SDS011;5961;42.640;23.380;2024-03-22T03:15:10;21.07;;;8.63;;
11807;SDS011;5961;42.640;23.380;2024-03-22T03:17:36;19.37;;;8.50;;
11807;SDS011;5961;42.640;23.380;2024-03-22T03:20:03;22.77;;;8.63;;
11807;SDS011;5961;42.640;23.380;2024-03-22T03:22:32;23.03;;;9.47;;
11807;SDS011;5961;42.640;23.380;2024-03-22T03:24:59;21.00;;;8.27;;
11807;SDS011;5961;42.640;23.380;2024-03-22T03:27:25;23.67;;;8.27;;
11807;SDS011;5961;42.640;23.380;2024-03-22T03:29:52;19.40;;;9.00;;
11807;SDS011;5961;42.640;23.380;2024-03-22T03:32:19;15.50;;;8.80;;
11807;SDS011;5961;42.640;23.380;2024-03-22T03:34:46;20.37;;;9.57;;
11807;SDS011;5961;42.640;23.380;2024-03-22T03:37:11;20.80;;;9.63;;
11807;SDS011;5961;42.640;23.380;2024-03-22T03:39:38;22.27;;;9.87;;
11807;SDS011;5961;42.640;23.380;2024-03-22T03:42:04;20.23;;;9.63;;
11807;SDS011;5961;42.640;23.380;2024-03-22T03:44:30;21.20;;;9.20;;
11807;SDS011;5961;42.640;23.380;2024-03-22T03:46:56;22.07;;;9.63;;
11807;SDS011;5961;42.640;23.380;2024-03-22T03:49:24;21.77;;;9.00;;
11807;SDS011;5961;42.640;23.380;2024-03-22T03:51:50;18.47;;;9.13;;
11807;SDS011;5961;42.640;23.380;2024-03-22T03:54:16;18.63;;;8.73;;
11807;SDS011;5961;42.640;23.380;2024-03-22T03:56:42;17.50;;;9.00;;
11807;SDS011;5961;42.640;23.380;2024-03-22T03:59:09;16.47;;;9.07;;
11807;SDS011;5961;42.640;23.380;2024-03-22T04:01:35;18.83;;;9.03;;
11807;SDS011;5961;42.640;23.380;2024-03-22T04:04:01;22.77;;;10.13;;
11807;SDS011;5961;42.640;23.380;2024-03-22T04:06:28;19.53;;;9.43;;
11807;SDS011;5961;42.640;23.380;2024-03-22T04:08:55;18.97;;;9.30;;
11807;SDS011;5961;42.640;23.380;2024-03-22T04:11:22;20.80;;;8.90;;
11807;SDS011;5961;42.640;23.380;2024-03-22T04:13:49;19.03;;;8.67;;
11807;SDS011;5961;42.640;23.380;2024-03-22T04:16:15;18.63;;;9.27;;
11807;SDS011;5961;42.640;23.380;2024-03-22T04:18:41;16.83;;;8.80;;
11807;SDS011;5961;42.640;23.380;2024-03-22T04:21:07;17.30;;;8.80;;
11807;SDS011;5961;42.640;23.380;2024-03-22T04:23:35;17.00;;;8.33;;
11807;SDS011;5961;42.640;23.380;2024-03-22T04:26:01;21.80;;;8.37;;
11807;SDS011;5961;42.640;23.380;2024-03-22T04:28:28;18.03;;;8.67;;
11807;SDS011;5961;42.640;23.380;2024-03-22T04:30:55;17.60;;;8.73;;
11807;SDS011;5961;42.640;23.380;2024-03-22T04:33:26;15.50;;;7.63;;
11807;SDS011;5961;42.640;23.380;2024-03-22T04:35:51;18.57;;;8.70;;
11807;SDS011;5961;42.640;23.380;2024-03-22T04:38:19;17.70;;;8.90;;
11807;SDS011;5961;42.640;23.380;2024-03-22T04:40:47;18.20;;;8.90;;
11807;SDS011;5961;42.640;23.380;2024-03-22T04:43:14;19.37;;;9.93;;
11807;SDS011;5961;42.640;23.380;2024-03-22T04:45:41;19.03;;;9.40;;
11807;SDS011;5961;42.640;23.380;2024-03-22T04:48:07;21.43;;;10.53;;
11807;SDS011;5961;42.640;23.380;2024-03-22T04:50:33;25.20;;;9.93;;
11807;SDS011;5961;42.640;23.380;2024-03-22T04:53:00;19.77;;;9.57;;
11807;SDS011;5961;42.640;23.380;2024-03-22T04:55:26;31.43;;;15.07;;
11807;SDS011;5961;42.640;23.380;2024-03-22T04:57:54;41.13;;;18.53;;
11807;SDS011;5961;42.640;23.380;2024-03-22T05:00:20;31.07;;;15.53;;
11807;SDS011;5961;42.640;23.380;2024-03-22T05:02:47;44.03;;;19.37;;
11807;SDS011;5961;42.640;23.380;2024-03-22T05:05:13;46.43;;;20.33;;
11807;SDS011;5961;42.640;23.380;2024-03-22T05:07:40;38.67;;;17.17;;
11807;SDS011;5961;42.640;23.380;2024-03-22T05:10:06;41.37;;;18.20;;
11807;SDS011;5961;42.640;23.380;2024-03-22T05:12:34;40.27;;;18.20;;
11807;SDS011;5961;42.640;23.380;2024-03-22T05:15:01;25.33;;;12.50;;
11807;SDS011;5961;42.640;23.380;2024-03-22T05:17:28;23.07;;;11.47;;
11807;SDS011;5961;42.640;23.380;2024-03-22T05:19:54;24.20;;;10.40;;
11807;SDS011;5961;42.640;23.380;2024-03-22T05:22:21;23.70;;;9.90;;
11807;SDS011;5961;42.640;23.380;2024-03-22T05:24:47;25.27;;;10.53;;
11807;SDS011;5961;42.640;23.380;2024-03-22T05:27:13;23.97;;;11.57;;
11807;SDS011;5961;42.640;23.380;2024-03-22T05:29:39;31.73;;;12.63;;
11807;SDS011;5961;42.640;23.380;2024-03-22T05:32:08;24.87;;;10.60;;
11807;SDS011;5961;42.640;23.380;2024-03-22T05:34:33;22.07;;;10.63;;
11807;SDS011;5961;42.640;23.380;2024-03-22T05:37:00;22.43;;;11.03;;
11807;SDS011;5961;42.640;23.380;2024-03-22T05:39:26;22.10;;;10.07;;
11807;SDS011;5961;42.640;23.380;2024-03-22T05:41:52;26.67;;;11.63;;
11807;SDS011;5961;42.640;23.380;2024-03-22T05:44:19;21.07;;;9.87;;
11807;SDS011;5961;42.640;23.380;2024-03-22T05:46:46;24.57;;;11.07;;
11807;SDS011;5961;42.640;23.380;2024-03-22T05:49:13;19.37;;;9.63;;
11807;SDS011;5961;42.640;23.380;2024-03-22T05:51:40;23.97;;;10.00;;
11807;SDS011;5961;42.640;23.380;2024-03-22T05:54:05;19.63;;;9.57;;
11807;SDS011;5961;42.640;23.380;2024-03-22T05:56:32;21.90;;;10.13;;
11807;SDS011;5961;42.640;23.380;2024-03-22T05:58:58;19.00;;;8.50;;
11807;SDS011;5961;42.640;23.380;2024-03-22T06:01:25;24.83;;;9.97;;
11807;SDS011;5961;42.640;23.380;2024-03-22T06:03:50;25.33;;;9.83;;
11807;SDS011;5961;42.640;23.380;2024-03-22T06:06:18;20.63;;;9.73;;
11807;SDS011;5961;42.640;23.380;2024-03-22T06:08:47;20.43;;;9.97;;
11807;SDS011;5961;42.640;23.380;2024-03-22T06:11:17;21.47;;;9.17;;
11807;SDS011;5961;42.640;23.380;2024-03-22T06:13:43;23.93;;;10.17;;
11807;SDS011;5961;42.640;23.380;2024-03-22T06:16:10;20.43;;;10.10;;
11807;SDS011;5961;42.640;23.380;2024-03-22T06:18:36;19.40;;;10.37;;
11807;SDS011;5961;42.640;23.380;2024-03-22T06:21:03;26.43;;;10.20;;
11807;SDS011;5961;42.640;23.380;2024-03-22T06:23:31;20.77;;;10.17;;
11807;SDS011;5961;42.640;23.380;2024-03-22T06:25:58;21.80;;;9.57;;
11807;SDS011;5961;42.640;23.380;2024-03-22T06:28:25;18.87;;;9.47;;
11807;SDS011;5961;42.640;23.380;2024-03-22T06:30:53;22.47;;;9.60;;
11807;SDS011;5961;42.640;23.380;2024-03-22T06:33:19;17.90;;;9.70;;
11807;SDS011;5961;42.640;23.380;2024-03-22T06:35:45;19.50;;;9.77;;
11807;SDS011;5961;42.640;23.380;2024-03-22T06:38:11;18.53;;;9.63;;
11807;SDS011;5961;42.640;23.380;2024-03-22T06:40:39;21.40;;;10.30;;
11807;SDS011;5961;42.640;23.380;2024-03-22T06:43:05;26.40;;;9.47;;
11807;SDS011;5961;42.640;23.380;2024-03-22T06:45:32;21.03;;;9.33;;
11807;SDS011;5961;42.640;23.380;2024-03-22T06:47:57;19.07;;;9.70;;
11807;SDS011;5961;42.640;23.380;2024-03-22T06:50:24;20.87;;;9.27;;
11807;SDS011;5961;42.640;23.380;2024-03-22T06:52:50;23.03;;;10.33;;
11807;SDS011;5961;42.640;23.380;2024-03-22T06:55:18;22.07;;;10.00;;
11807;SDS011;5961;42.640;23.380;2024-03-22T06:57:45;24.70;;;10.30;;
11807;SDS011;5961;42.640;23.380;2024-03-22T07:00:13;26.73;;;13.40;;
11807;SDS011;5961;42.640;23.380;2024-03-22T07:02:39;28.67;;;12.00;;
11807;SDS011;5961;42.640;23.380;2024-03-22T07:05:07;26.10;;;11.67;;
11807;SDS011;5961;42.640;23.380;2024-03-22T07:07:33;27.97;;;11.67;;
11807;SDS011;5961;42.640;23.380;2024-03-22T07:10:01;27.83;;;11.97;;
11807;SDS011;5961;42.640;23.380;2024-03-22T07:12:27;29.33;;;13.57;;
11807;SDS011;5961;42.640;23.380;2024-03-22T07:14:55;31.77;;;12.37;;
11807;SDS011;5961;42.640;23.380;2024-03-22T07:17:21;29.33;;;13.97;;
11807;SDS011;5961;42.640;23.380;2024-03-22T07:19:49;34.37;;;13.20;;
11807;SDS011;5961;42.640;23.380;2024-03-22T07:22:16;28.63;;;14.60;;
11807;SDS011;5961;42.640;23.380;2024-03-22T07:24:42;29.10;;;13.07;;
11807;SDS011;5961;42.640;23.380;2024-03-22T07:27:08;30.33;;;12.70;;
11807;SDS011;5961;42.640;23.380;2024-03-22T07:29:35;26.13;;;12.70;;
11807;SDS011;5961;42.640;23.380;2024-03-22T07:32:02;26.33;;;11.80;;
11807;SDS011;5961;42.640;23.380;2024-03-22T07:34:29;25.50;;;11.40;;
11807;SDS011;5961;42.640;23.380;2024-03-22T07:36:55;35.07;;;13.93;;
11807;SDS011;5961;42.640;23.380;2024-03-22T07:39:22;34.77;;;14.73;;
11807;SDS011;5961;42.640;23.380;2024-03-22T07:41:47;28.27;;;11.80;;
11807;SDS011;5961;42.640;23.380;2024-03-22T07:44:15;24.40;;;9.77;;
11807;SDS011;5961;42.640;23.380;2024-03-22T07:46:42;30.80;;;12.40;;
11807;SDS011;5961;42.640;23.380;2024-03-22T07:49:11;28.03;;;10.33;;
11807;SDS011;5961;42.640;23.380;2024-03-22T07:51:37;18.30;;;9.23;;
11807;SDS011;5961;42.640;23.380;2024-03-22T07:54:03;22.03;;;9.40;;
11807;SDS011;5961;42.640;23.380;2024-03-22T07:56:29;17.37;;;8.30;;
11807;SDS011;5961;42.640;23.380;2024-03-22T07:58:56;18.93;;;6.83;;
11807;SDS011;5961;42.640;23.380;2024-03-22T08:01:22;16.47;;;6.87;;
11807;SDS011;5961;42.640;23.380;2024-03-22T08:03:49;11.57;;;5.70;;
11807;SDS011;5961;42.640;23.380;2024-03-22T08:06:16;10.67;;;6.00;;
11807;SDS011;5961;42.640;23.380;2024-03-22T08:08:43;12.00;;;6.50;;
11807;SDS011;5961;42.640;23.380;2024-03-22T08:11:08;14.27;;;7.17;;
11807;SDS011;5961;42.640;23.380;2024-03-22T08:13:35;17.33;;;8.20;;
11807;SDS011;5961;42.640;23.380;2024-03-22T08:16:01;13.90;;;7.83;;
11807;SDS011;5961;42.640;23.380;2024-03-22T08:18:31;24.17;;;9.20;;
11807;SDS011;5961;42.640;23.380;2024-03-22T08:20:57;17.40;;;7.47;;
11807;SDS011;5961;42.640;23.380;2024-03-22T08:23:26;16.73;;;7.23;;
11807;SDS011;5961;42.640;23.380;2024-03-22T08:25:51;18.67;;;9.23;;
11807;SDS011;5961;42.640;23.380;2024-03-22T08:28:18;19.07;;;7.80;;
11807;SDS011;5961;42.640;23.380;2024-03-22T08:30:45;16.80;;;7.20;;
11807;SDS011;5961;42.640;23.380;2024-03-22T08:33:12;14.40;;;7.07;;
11807;SDS011;5961;42.640;23.380;2024-03-22T08:35:37;13.00;;;6.93;;
11807;SDS011;5961;42.640;23.380;2024-03-22T08:38:04;15.37;;;6.33;;
11807;SDS011;5961;42.640;23.380;2024-03-22T08:40:36;11.20;;;6.00;;
11807;SDS011;5961;42.640;23.380;2024-03-22T08:43:03;13.63;;;7.17;;
11807;SDS011;5961;42.640;23.380;2024-03-22T08:45:29;14.90;;;7.30;;
11807;SDS011;5961;42.640;23.380;2024-03-22T08:47:56;14.77;;;5.83;;
11807;SDS011;5961;42.640;23.380;2024-03-22T08:50:22;12.70;;;6.10;;
11807;SDS011;5961;42.640;23.380;2024-03-22T08:52:48;12.87;;;6.60;;
11807;SDS011;5961;42.640;23.380;2024-03-22T08:55:14;12.20;;;6.67;;
11807;SDS011;5961;42.640;23.380;2024-03-22T08:57:42;15.13;;;8.73;;
11807;SDS011;5961;42.640;23.380;2024-03-22T09:00:09;13.20;;;6.80;;
11807;SDS011;5961;42.640;23.380;2024-03-22T09:02:36;20.20;;;9.87;;
11807;SDS011;5961;42.640;23.380;2024-03-22T09:05:03;15.90;;;8.73;;
11807;SDS011;5961;42.640;23.380;2024-03-22T09:07:30;14.03;;;7.20;;
11807;SDS011;5961;42.640;23.380;2024-03-22T09:09:56;18.07;;;7.80;;
11807;SDS011;5961;42.640;23.380;2024-03-22T09:12:22;17.57;;;7.33;;
11807;SDS011;5961;42.640;23.380;2024-03-22T09:14:49;14.10;;;5.80;;
11807;SDS011;5961;42.640;23.380;2024-03-22T09:17:16;10.83;;;5.90;;
11807;SDS011;5961;42.640;23.380;2024-03-22T09:19:42;11.00;;;5.70;;
11807;SDS011;5961;42.640;23.380;2024-03-22T09:22:09;13.30;;;6.37;;
11807;SDS011;5961;42.640;23.380;2024-03-22T09:24:35;11.67;;;6.00;;
11807;SDS011;5961;42.640;23.380;2024-03-22T09:27:01;12.00;;;5.93;;
11807;SDS011;5961;42.640;23.380;2024-03-22T09:29:33;11.40;;;5.60;;
11807;SDS011;5961;42.640;23.380;2024-03-22T09:32:01;16.00;;;7.87;;
11807;SDS011;5961;42.640;23.380;2024-03-22T09:34:27;14.17;;;6.20;;
11807;SDS011;5961;42.640;23.380;2024-03-22T09:36:54;13.77;;;6.60;;
11807;SDS011;5961;42.640;23.380;2024-03-22T09:39:20;14.30;;;6.30;;
11807;SDS011;5961;42.640;23.380;2024-03-22T09:41:47;12.07;;;6.73;;
11807;SDS011;5961;42.640;23.380;2024-03-22T09:44:14;13.27;;;6.53;;
11807;SDS011;5961;42.640;23.380;2024-03-22T09:46:45;14.37;;;6.97;;
11807;SDS011;5961;42.640;23.380;2024-03-22T09:49:13;13.00;;;6.43;;
11807;SDS011;5961;42.640;23.380;2024-03-22T09:51:40;15.67;;;5.80;;
11807;SDS011;5961;42.640;23.380;2024-03-22T09:54:08;13.47;;;6.20;;
11807;SDS011;5961;42.640;23.380;2024-03-22T09:56:35;10.20;;;5.67;;
11807;SDS011;5961;42.640;23.380;2024-03-22T09:59:04;14.13;;;6.63;;
11807;SDS011;5961;42.640;23.380;2024-03-22T10:01:32;15.13;;;5.27;;
11807;SDS011;5961;42.640;23.380;2024-03-22T10:03:59;8.20;;;4.80;;
11807;SDS011;5961;42.640;23.380;2024-03-22T10:06:27;10.87;;;4.90;;
11807;SDS011;5961;42.640;23.380;2024-03-22T10:08:54;11.30;;;5.80;;
11807;SDS011;5961;42.640;23.380;2024-03-22T10:11:25;14.17;;;6.10;;
11807;SDS011;5961;42.640;23.380;2024-03-22T10:13:51;12.30;;;5.43;;
11807;SDS011;5961;42.640;23.380;2024-03-22T10:16:20;8.83;;;5.20;;
11807;SDS011;5961;42.640;23.380;2024-03-22T10:18:45;9.93;;;5.47;;
11807;SDS011;5961;42.640;23.380;2024-03-22T10:21:16;13.33;;;5.43;;
11807;SDS011;5961;42.640;23.380;2024-03-22T10:23:44;10.07;;;5.60;;
11807;SDS011;5961;42.640;23.380;2024-03-22T10:26:13;15.80;;;5.90;;
11807;SDS011;5961;42.640;23.380;2024-03-22T10:28:43;12.17;;;5.37;;
11807;SDS011;5961;42.640;23.380;2024-03-22T10:31:11;12.00;;;5.50;;
11807;SDS011;5961;42.640;23.380;2024-03-22T10:33:37;10.13;;;6.03;;
11807;SDS011;5961;42.640;23.380;2024-03-22T10:36:06;8.57;;;5.47;;
11807;SDS011;5961;42.640;23.380;2024-03-22T10:38:32;10.07;;;5.20;;
11807;SDS011;5961;42.640;23.380;2024-03-22T10:41:03;10.70;;;5.23;;
11807;SDS011;5961;42.640;23.380;2024-03-22T10:43:30;13.87;;;6.90;;
11807;SDS011;5961;42.640;23.380;2024-03-22T10:46:00;16.53;;;5.77;;
11807;SDS011;5961;42.640;23.380;2024-03-22T10:48:26;8.83;;;5.30;;
11807;SDS011;5961;42.640;23.380;2024-03-22T10:50:56;9.17;;;5.40;;
11807;SDS011;5961;42.640;23.380;2024-03-22T10:53:25;11.30;;;5.47;;
11807;SDS011;5961;42.640;23.380;2024-03-22T10:55:52;7.20;;;4.90;;
11807;SDS011;5961;42.640;23.380;2024-03-22T10:58:21;11.87;;;5.43;;
11807;SDS011;5961;42.640;23.380;2024-03-22T11:00:51;10.30;;;5.20;;
11807;SDS011;5961;42.640;23.380;2024-03-22T11:03:19;8.80;;;4.90;;
11807;SDS011;5961;42.640;23.380;2024-03-22T11:05:46;7.20;;;4.83;;
11807;SDS011;5961;42.640;23.380;2024-03-22T11:08:12;9.03;;;4.67;;
11807;SDS011;5961;42.640;23.380;2024-03-22T11:10:39;9.87;;;4.70;;
11807;SDS011;5961;42.640;23.380;2024-03-22T11:13:05;10.50;;;5.70;;
11807;SDS011;5961;42.640;23.380;2024-03-22T11:15:35;9.03;;;4.60;;
11807;SDS011;5961;42.640;23.380;2024-03-22T11:18:00;8.53;;;5.27;;
11807;SDS011;5961;42.640;23.380;2024-03-22T11:20:27;14.43;;;5.53;;
11807;SDS011;5961;42.640;23.380;2024-03-22T11:22:54;7.60;;;4.97;;
11807;SDS011;5961;42.640;23.380;2024-03-22T11:25:22;9.60;;;5.03;;
11807;SDS011;5961;42.640;23.380;2024-03-22T11:27:48;11.93;;;5.47;;
11807;SDS011;5961;42.640;23.380;2024-03-22T11:30:15;10.37;;;5.10;;
11807;SDS011;5961;42.640;23.380;2024-03-22T11:32:43;9.13;;;5.47;;
11807;SDS011;5961;42.640;23.380;2024-03-22T11:35:10;9.10;;;4.53;;
11807;SDS011;5961;42.640;23.380;2024-03-22T11:37:36;11.57;;;5.80;;
11807;SDS011;5961;42.640;23.380;2024-03-22T11:40:04;10.57;;;5.30;;
11807;SDS011;5961;42.640;23.380;2024-03-22T11:42:31;12.57;;;5.90;;
11807;SDS011;5961;42.640;23.380;2024-03-22T11:44:59;10.23;;;5.67;;
11807;SDS011;5961;42.640;23.380;2024-03-22T11:47:25;9.57;;;5.73;;
11807;SDS011;5961;42.640;23.380;2024-03-22T11:49:54;10.10;;;5.83;;
11807;SDS011;5961;42.640;23.380;2024-03-22T11:52:23;9.37;;;5.23;;
11807;SDS011;5961;42.640;23.380;2024-03-22T11:54:51;8.23;;;4.97;;
11807;SDS011;5961;42.640;23.380;2024-03-22T11:57:17;8.30;;;5.23;;
11807;SDS011;5961;42.640;23.380;2024-03-22T11:59:44;8.73;;;5.60;;
11807;SDS011;5961;42.640;23.380;2024-03-22T12:02:10;9.80;;;5.57;;
11807;SDS011;5961;42.640;23.380;2024-03-22T12:04:40;17.80;;;5.90;;
11807;SDS011;5961;42.640;23.380;2024-03-22T12:07:10;9.23;;;5.33;;
11807;SDS011;5961;42.640;23.380;2024-03-22T12:09:37;14.23;;;5.60;;
11807;SDS011;5961;42.640;23.380;2024-03-22T12:12:03;11.17;;;6.53;;
11807;SDS011;5961;42.640;23.380;2024-03-22T12:14:30;11.23;;;5.07;;
11807;SDS011;5961;42.640;23.380;2024-03-22T12:16:56;17.40;;;6.67;;
11807;SDS011;5961;42.640;23.380;2024-03-22T12:19:24;12.30;;;5.30;;
11807;SDS011;5961;42.640;23.380;2024-03-22T12:21:49;8.60;;;5.50;;
11807;SDS011;5961;42.640;23.380;2024-03-22T12:24:17;10.43;;;5.03;;
11807;SDS011;5961;42.640;23.380;2024-03-22T12:26:43;7.43;;;4.50;;
11807;SDS011;5961;42.640;23.380;2024-03-22T12:29:10;8.93;;;4.40;;
11807;SDS011;5961;42.640;23.380;2024-03-22T12:31:37;12.90;;;4.93;;
11807;SDS011;5961;42.640;23.380;2024-03-22T12:34:04;29.60;;;19.20;;
11807;SDS011;5961;42.640;23.380;2024-03-22T12:36:30;16.67;;;7.60;;
11807;SDS011;5961;42.640;23.380;2024-03-22T12:38:57;16.07;;;9.87;;
11807;SDS011;5961;42.640;23.380;2024-03-22T12:41:24;20.63;;;10.50;;
11807;SDS011;5961;42.640;23.380;2024-03-22T12:43:51;11.63;;;7.07;;
11807;SDS011;5961;42.640;23.380;2024-03-22T12:46:17;13.37;;;5.03;;
11807;SDS011;5961;42.640;23.380;2024-03-22T12:48:43;7.33;;;4.80;;
11807;SDS011;5961;42.640;23.380;2024-03-22T12:51:09;7.17;;;4.90;;
11807;SDS011;5961;42.640;23.380;2024-03-22T12:53:36;11.27;;;4.93;;
11807;SDS011;5961;42.640;23.380;2024-03-22T12:56:02;13.77;;;5.67;;
11807;SDS011;5961;42.640;23.380;2024-03-22T12:58:31;12.20;;;6.50;;
11807;SDS011;5961;42.640;23.380;2024-03-22T13:00:56;12.00;;;6.07;;
11807;SDS011;5961;42.640;23.380;2024-03-22T13:03:25;8.63;;;5.57;;
11807;SDS011;5961;42.640;23.380;2024-03-22T13:05:51;11.47;;;5.93;;
11807;SDS011;5961;42.640;23.380;2024-03-22T13:08:17;12.43;;;7.00;;
11807;SDS011;5961;42.640;23.380;2024-03-22T13:10:44;11.00;;;5.47;;
11807;SDS011;5961;42.640;23.380;2024-03-22T13:13:10;9.17;;;5.97;;
11807;SDS011;5961;42.640;23.380;2024-03-22T13:15:38;12.60;;;5.40;;
11807;SDS011;5961;42.640;23.380;2024-03-22T13:18:05;13.55;;;7.20;;
11807;SDS011;5961;42.640;23.380;2024-03-22T13:20:30;8.65;;;4.88;;
11807;SDS011;5961;42.640;23.380;2024-03-22T13:22:58;12.73;;;6.28;;
11807;SDS011;5961;42.640;23.380;2024-03-22T13:25:23;9.45;;;5.15;;
11807;SDS011;5961;42.640;23.380;2024-03-22T13:27:51;9.20;;;5.93;;
11807;SDS011;5961;42.640;23.380;2024-03-22T13:30:16;10.98;;;5.40;;
11807;SDS011;5961;42.640;23.380;2024-03-22T13:32:44;11.43;;;5.25;;
11807;SDS011;5961;42.640;23.380;2024-03-22T13:35:10;7.55;;;5.03;;
11807;SDS011;5961;42.640;23.380;2024-03-22T13:37:37;10.68;;;5.55;;
11807;SDS011;5961;42.640;23.380;2024-03-22T13:40:03;9.35;;;5.40;;
11807;SDS011;5961;42.640;23.380;2024-03-22T13:42:30;19.08;;;11.80;;
11807;SDS011;5961;42.640;23.380;2024-03-22T13:44:56;20.73;;;11.63;;
11807;SDS011;5961;42.640;23.380;2024-03-22T13:47:23;20.67;;;11.55;;
11807;SDS011;5961;42.640;23.380;2024-03-22T13:49:50;10.35;;;6.32;;
11807;SDS011;5961;42.640;23.380;2024-03-22T13:52:16;9.95;;;5.82;;
11807;SDS011;5961;42.640;23.380;2024-03-22T13:54:43;11.50;;;5.70;;
11807;SDS011;5961;42.640;23.380;2024-03-22T13:57:10;12.13;;;6.53;;
11807;SDS011;5961;42.640;23.380;2024-03-22T13:59:36;15.95;;;9.68;;
11807;SDS011;5961;42.640;23.380;2024-03-22T14:02:02;20.02;;;6.63;;
11807;SDS011;5961;42.640;23.380;2024-03-22T14:04:28;14.98;;;8.25;;
11807;SDS011;5961;42.640;23.380;2024-03-22T14:06:57;10.98;;;5.82;;
11807;SDS011;5961;42.640;23.380;2024-03-22T14:09:22;9.27;;;4.45;;
11807;SDS011;5961;42.640;23.380;2024-03-22T14:11:49;15.13;;;9.35;;
11807;SDS011;5961;42.640;23.380;2024-03-22T14:14:15;17.88;;;7.20;;
11807;SDS011;5961;42.640;23.380;2024-03-22T14:16:42;9.05;;;5.35;;
11807;SDS011;5961;42.640;23.380;2024-03-22T14:19:07;17.33;;;5.05;;
11807;SDS011;5961;42.640;23.380;2024-03-22T14:21:34;15.77;;;5.13;;
11807;SDS011;5961;42.640;23.380;2024-03-22T14:24:01;9.95;;;5.53;;
11807;SDS011;5961;42.640;23.380;2024-03-22T14:26:29;10.45;;;5.85;;
11807;SDS011;5961;42.640;23.380;2024-03-22T14:28:55;13.52;;;8.10;;
11807;SDS011;5961;42.640;23.380;2024-03-22T14:31:22;15.63;;;7.25;;